sensor_id;sensor_type;location;lat;lon;timestamp;temperature;humidity
55648;DHT22;45266;48.756;9.246;2023-07-20T00:00:41;18.60;99.90
55648;DHT22;45266;48.756;9.246;2023-07-20T00:01:44;18.60;99.90
55648;DHT22;45266;48.756;9.246;2023-07-20T00:02:51;18.60;99.90
55648;DHT22;45266;48.756;9.246;2023-07-20T00:03:53;18.50;99.90
55648;DHT22;45266;48.756;9.246;2023-07-20T00:04:58;18.50;99.90
55648;DHT22;45266;48.756;9.246;2023-07-20T00:06:00;18.40;99.90
55648;DHT22;45266;48.756;9.246;2023-07-20T00:07:03;18.40;99.90
55648;DHT22;45266;48.756;9.246;2023-07-20T00:08:05;18.40;99.90
55648;DHT22;45266;48.756;9.246;2023-07-20T00:09:07;18.30;99.90
55648;DHT22;45266;48.756;9.246;2023-07-20T00:10:12;18.30;99.90
55648;DHT22;45266;48.756;9.246;2023-07-20T00:11:17;18.20;99.90
55648;DHT22;45266;48.756;9.246;2023-07-20T00:12:19;18.20;99.90
55648;DHT22;45266;48.756;9.246;2023-07-20T00:13:22;18.10;99.90
55648;DHT22;45266;48.756;9.246;2023-07-20T00:14:25;18.10;99.90
55648;DHT22;45266;48.756;9.246;2023-07-20T00:15:29;18.10;99.90
55648;DHT22;45266;48.756;9.246;2023-07-20T00:16:37;18.10;99.90
55648;DHT22;45266;48.756;9.246;2023-07-20T00:17:46;18.00;99.90
55648;DHT22;45266;48.756;9.246;2023-07-20T00:18:51;18.00;99.90
55648;DHT22;45266;48.756;9.246;2023-07-20T00:19:53;18.00;99.90
55648;DHT22;45266;48.756;9.246;2023-07-20T00:20:55;17.90;99.90
55648;DHT22;45266;48.756;9.246;2023-07-20T00:21:57;17.90;99.90
55648;DHT22;45266;48.756;9.246;2023-07-20T00:23:00;17.90;99.90
55648;DHT22;45266;48.756;9.246;2023-07-20T00:24:11;17.80;99.90
55648;DHT22;45266;48.756;9.246;2023-07-20T00:25:13;17.80;99.90
55648;DHT22;45266;48.756;9.246;2023-07-20T00:26:15;17.70;99.90
55648;DHT22;45266;48.756;9.246;2023-07-20T00:27:17;17.70;99.90
55648;DHT22;45266;48.756;9.246;2023-07-20T00:28:20;17.70;99.90
55648;DHT22;45266;48.756;9.246;2023-07-20T00:29:22;17.70;99.90
55648;DHT22;45266;48.756;9.246;2023-07-20T00:30:25;17.60;99.90
55648;DHT22;45266;48.756;9.246;2023-07-20T00:31:31;17.60;99.90
55648;DHT22;45266;48.756;9.246;2023-07-20T00:32:33;17.50;99.90
55648;DHT22;45266;48.756;9.246;2023-07-20T00:33:36;17.50;99.90
55648;DHT22;45266;48.756;9.246;2023-07-20T00:34:39;17.50;99.90
55648;DHT22;45266;48.756;9.246;2023-07-20T00:35:41;17.40;99.90
55648;DHT22;45266;48.756;9.246;2023-07-20T00:36:43;17.40;99.90
55648;DHT22;45266;48.756;9.246;2023-07-20T00:37:45;17.30;99.90
55648;DHT22;45266;48.756;9.246;2023-07-20T00:38:50;17.30;99.90
55648;DHT22;45266;48.756;9.246;2023-07-20T00:39:56;17.30;99.90
55648;DHT22;45266;48.756;9.246;2023-07-20T00:41:00;17.30;99.90
55648;DHT22;45266;48.756;9.246;2023-07-20T00:42:03;17.30;99.90
55648;DHT22;45266;48.756;9.246;2023-07-20T00:43:05;17.30;99.90
55648;DHT22;45266;48.756;9.246;2023-07-20T00:44:08;17.30;99.90
55648;DHT22;45266;48.756;9.246;2023-07-20T00:45:10;17.20;99.90
55648;DHT22;45266;48.756;9.246;2023-07-20T00:46:12;17.20;99.90
55648;DHT22;45266;48.756;9.246;2023-07-20T00:47:15;17.20;99.90
55648;DHT22;45266;48.756;9.246;2023-07-20T00:48:17;17.20;99.90
55648;DHT22;45266;48.756;9.246;2023-07-20T00:49:19;17.20;99.90
55648;DHT22;45266;48.756;9.246;2023-07-20T00:50:24;17.10;99.90
55648;DHT22;45266;48.756;9.246;2023-07-20T00:51:26;17.10;99.90
55648;DHT22;45266;48.756;9.246;2023-07-20T00:52:29;17.10;99.90
55648;DHT22;45266;48.756;9.246;2023-07-20T00:53:31;17.10;99.90
55648;DHT22;45266;48.756;9.246;2023-07-20T00:54:34;17.00;99.90
55648;DHT22;45266;48.756;9.246;2023-07-20T00:55:36;17.00;99.90
55648;DHT22;45266;48.756;9.246;2023-07-20T00:56:39;17.00;99.90
55648;DHT22;45266;48.756;9.246;2023-07-20T00:57:42;16.90;99.90
55648;DHT22;45266;48.756;9.246;2023-07-20T00:58:46;16.90;99.90
55648;DHT22;45266;48.756;9.246;2023-07-20T00:59:51;16.90;99.90
55648;DHT22;45266;48.756;9.246;2023-07-20T01:00:54;16.80;99.90
55648;DHT22;45266;48.756;9.246;2023-07-20T01:01:57;16.80;99.90
55648;DHT22;45266;48.756;9.246;2023-07-20T01:02:59;16.80;99.90
55648;DHT22;45266;48.756;9.246;2023-07-20T01:04:02;16.80;99.90
55648;DHT22;45266;48.756;9.246;2023-07-20T01:05:05;16.80;99.90
55648;DHT22;45266;48.756;9.246;2023-07-20T01:06:22;16.70;99.90
55648;DHT22;45266;48.756;9.246;2023-07-20T01:09:08;16.70;99.90
55648;DHT22;45266;48.756;9.246;2023-07-20T01:10:25;16.70;99.90
55648;DHT22;45266;48.756;9.246;2023-07-20T01:13:01;16.60;99.90
55648;DHT22;45266;48.756;9.246;2023-07-20T01:14:05;16.60;99.90
55648;DHT22;45266;48.756;9.246;2023-07-20T01:15:08;16.60;99.90
55648;DHT22;45266;48.756;9.246;2023-07-20T01:16:10;16.60;99.90
55648;DHT22;45266;48.756;9.246;2023-07-20T01:17:12;16.60;99.90
55648;DHT22;45266;48.756;9.246;2023-07-20T01:18:15;16.60;99.90
55648;DHT22;45266;48.756;9.246;2023-07-20T01:19:18;16.60;99.90
55648;DHT22;45266;48.756;9.246;2023-07-20T01:20:21;16.60;99.90
55648;DHT22;45266;48.756;9.246;2023-07-20T01:21:33;16.60;99.90
55648;DHT22;45266;48.756;9.246;2023-07-20T01:23:09;16.60;99.90
55648;DHT22;45266;48.756;9.246;2023-07-20T01:26:13;16.50;99.90
55648;DHT22;45266;48.756;9.246;2023-07-20T01:31:40;16.40;99.90
55648;DHT22;45266;48.756;9.246;2023-07-20T01:32:50;16.40;99.90
55648;DHT22;45266;48.756;9.246;2023-07-20T01:34:01;16.40;99.90
55648;DHT22;45266;48.756;9.246;2023-07-20T01:35:05;16.30;99.90
55648;DHT22;45266;48.756;9.246;2023-07-20T01:36:08;16.40;99.90
55648;DHT22;45266;48.756;9.246;2023-07-20T01:37:12;16.30;99.90
55648;DHT22;45266;48.756;9.246;2023-07-20T01:38:16;16.30;99.90
55648;DHT22;45266;48.756;9.246;2023-07-20T01:39:20;16.30;99.90
55648;DHT22;45266;48.756;9.246;2023-07-20T01:40:23;16.30;99.90
55648;DHT22;45266;48.756;9.246;2023-07-20T01:41:28;16.20;99.90
55648;DHT22;45266;48.756;9.246;2023-07-20T01:42:32;16.20;99.90
55648;DHT22;45266;48.756;9.246;2023-07-20T01:43:35;16.20;99.90
55648;DHT22;45266;48.756;9.246;2023-07-20T01:44:40;16.20;99.90
55648;DHT22;45266;48.756;9.246;2023-07-20T01:45:42;16.20;99.90
55648;DHT22;45266;48.756;9.246;2023-07-20T01:46:47;16.10;99.90
55648;DHT22;45266;48.756;9.246;2023-07-20T01:47:51;16.10;99.90
55648;DHT22;45266;48.756;9.246;2023-07-20T01:48:58;16.00;99.90
55648;DHT22;45266;48.756;9.246;2023-07-20T01:50:01;16.00;99.90
55648;DHT22;45266;48.756;9.246;2023-07-20T01:51:04;16.00;99.90
55648;DHT22;45266;48.756;9.246;2023-07-20T01:52:06;16.00;99.90
55648;DHT22;45266;48.756;9.246;2023-07-20T01:53:08;15.90;99.90
55648;DHT22;45266;48.756;9.246;2023-07-20T01:54:12;15.90;99.90
55648;DHT22;45266;48.756;9.246;2023-07-20T01:55:18;15.90;99.90
55648;DHT22;45266;48.756;9.246;2023-07-20T01:56:23;15.80;99.90
55648;DHT22;45266;48.756;9.246;2023-07-20T01:57:27;15.80;99.90
55648;DHT22;45266;48.756;9.246;2023-07-20T01:58:29;15.80;99.90
55648;DHT22;45266;48.756;9.246;2023-07-20T01:59:31;15.80;99.90
55648;DHT22;45266;48.756;9.246;2023-07-20T02:00:33;15.70;99.90
55648;DHT22;45266;48.756;9.246;2023-07-20T02:01:35;15.70;99.90
55648;DHT22;45266;48.756;9.246;2023-07-20T02:02:37;15.70;99.90
55648;DHT22;45266;48.756;9.246;2023-07-20T02:03:39;15.60;99.90
55648;DHT22;45266;48.756;9.246;2023-07-20T02:04:41;15.60;99.90
55648;DHT22;45266;48.756;9.246;2023-07-20T02:05:45;15.70;99.90
55648;DHT22;45266;48.756;9.246;2023-07-20T02:06:47;15.60;99.90
55648;DHT22;45266;48.756;9.246;2023-07-20T02:07:51;15.60;99.90
55648;DHT22;45266;48.756;9.246;2023-07-20T02:08:57;15.60;99.90
55648;DHT22;45266;48.756;9.246;2023-07-20T02:09:58;15.60;99.90
55648;DHT22;45266;48.756;9.246;2023-07-20T02:11:01;15.60;99.90
55648;DHT22;45266;48.756;9.246;2023-07-20T02:12:04;15.60;99.90
55648;DHT22;45266;48.756;9.246;2023-07-20T02:13:07;15.50;99.90
55648;DHT22;45266;48.756;9.246;2023-07-20T02:14:11;15.50;99.90
55648;DHT22;45266;48.756;9.246;2023-07-20T02:15:14;15.50;99.90
55648;DHT22;45266;48.756;9.246;2023-07-20T02:16:18;15.50;99.90
55648;DHT22;45266;48.756;9.246;2023-07-20T02:17:21;15.40;99.90
55648;DHT22;45266;48.756;9.246;2023-07-20T02:18:26;15.40;99.90
55648;DHT22;45266;48.756;9.246;2023-07-20T02:19:29;15.40;99.90
55648;DHT22;45266;48.756;9.246;2023-07-20T02:20:31;15.40;99.90
55648;DHT22;45266;48.756;9.246;2023-07-20T02:21:35;15.40;99.90
55648;DHT22;45266;48.756;9.246;2023-07-20T02:22:39;15.30;99.90
55648;DHT22;45266;48.756;9.246;2023-07-20T02:23:42;15.30;99.90
55648;DHT22;45266;48.756;9.246;2023-07-20T02:24:44;15.30;99.90
55648;DHT22;45266;48.756;9.246;2023-07-20T02:25:49;15.20;99.90
55648;DHT22;45266;48.756;9.246;2023-07-20T02:27:00;15.20;99.90
55648;DHT22;45266;48.756;9.246;2023-07-20T02:28:12;15.20;99.90
55648;DHT22;45266;48.756;9.246;2023-07-20T02:29:25;15.20;99.90
55648;DHT22;45266;48.756;9.246;2023-07-20T02:30:37;15.10;99.90
55648;DHT22;45266;48.756;9.246;2023-07-20T02:31:47;15.20;99.90
55648;DHT22;45266;48.756;9.246;2023-07-20T02:32:56;15.10;99.90
55648;DHT22;45266;48.756;9.246;2023-07-20T02:34:04;15.00;99.90
55648;DHT22;45266;48.756;9.246;2023-07-20T02:35:08;15.00;99.90
55648;DHT22;45266;48.756;9.246;2023-07-20T02:36:10;15.00;99.90
55648;DHT22;45266;48.756;9.246;2023-07-20T02:37:12;15.00;99.90
55648;DHT22;45266;48.756;9.246;2023-07-20T02:38:16;15.00;99.90
55648;DHT22;45266;48.756;9.246;2023-07-20T02:39:19;15.00;99.90
55648;DHT22;45266;48.756;9.246;2023-07-20T02:40:23;15.00;99.90
55648;DHT22;45266;48.756;9.246;2023-07-20T02:41:25;15.00;99.90
55648;DHT22;45266;48.756;9.246;2023-07-20T02:42:28;14.90;99.90
55648;DHT22;45266;48.756;9.246;2023-07-20T02:43:30;14.90;99.90
55648;DHT22;45266;48.756;9.246;2023-07-20T02:44:32;14.90;99.90
55648;DHT22;45266;48.756;9.246;2023-07-20T02:45:34;14.90;99.90
55648;DHT22;45266;48.756;9.246;2023-07-20T02:46:35;14.90;99.90
55648;DHT22;45266;48.756;9.246;2023-07-20T02:47:37;14.90;99.90
55648;DHT22;45266;48.756;9.246;2023-07-20T02:48:39;14.90;99.90
55648;DHT22;45266;48.756;9.246;2023-07-20T02:49:42;14.80;99.90
55648;DHT22;45266;48.756;9.246;2023-07-20T02:50:45;14.80;99.90
55648;DHT22;45266;48.756;9.246;2023-07-20T02:51:51;14.80;99.90
55648;DHT22;45266;48.756;9.246;2023-07-20T02:52:54;14.80;99.90
55648;DHT22;45266;48.756;9.246;2023-07-20T02:53:59;14.70;99.90
55648;DHT22;45266;48.756;9.246;2023-07-20T02:55:09;14.70;99.90
55648;DHT22;45266;48.756;9.246;2023-07-20T02:56:18;14.70;99.90
55648;DHT22;45266;48.756;9.246;2023-07-20T02:57:22;14.70;99.90
55648;DHT22;45266;48.756;9.246;2023-07-20T02:58:24;14.70;99.90
55648;DHT22;45266;48.756;9.246;2023-07-20T02:59:26;14.70;99.90
55648;DHT22;45266;48.756;9.246;2023-07-20T03:00:30;14.70;99.90
55648;DHT22;45266;48.756;9.246;2023-07-20T03:01:38;14.60;99.90
55648;DHT22;45266;48.756;9.246;2023-07-20T03:02:43;14.60;99.90
55648;DHT22;45266;48.756;9.246;2023-07-20T03:03:46;14.60;99.90
55648;DHT22;45266;48.756;9.246;2023-07-20T03:04:49;14.60;99.90
55648;DHT22;45266;48.756;9.246;2023-07-20T03:05:51;14.50;99.90
55648;DHT22;45266;48.756;9.246;2023-07-20T03:06:56;14.50;99.90
55648;DHT22;45266;48.756;9.246;2023-07-20T03:07:58;14.50;99.90
55648;DHT22;45266;48.756;9.246;2023-07-20T03:09:04;14.50;99.90
55648;DHT22;45266;48.756;9.246;2023-07-20T03:10:08;14.50;99.90
55648;DHT22;45266;48.756;9.246;2023-07-20T03:11:14;14.50;99.90
55648;DHT22;45266;48.756;9.246;2023-07-20T03:12:18;14.50;99.90
55648;DHT22;45266;48.756;9.246;2023-07-20T03:13:25;14.40;99.90
55648;DHT22;45266;48.756;9.246;2023-07-20T03:14:29;14.40;99.90
55648;DHT22;45266;48.756;9.246;2023-07-20T03:15:31;14.40;99.90
55648;DHT22;45266;48.756;9.246;2023-07-20T03:16:36;14.40;99.90
55648;DHT22;45266;48.756;9.246;2023-07-20T03:17:43;14.40;99.90
55648;DHT22;45266;48.756;9.246;2023-07-20T03:18:47;14.40;99.90
55648;DHT22;45266;48.756;9.246;2023-07-20T03:19:49;14.40;99.90
55648;DHT22;45266;48.756;9.246;2023-07-20T03:20:51;14.40;99.90
55648;DHT22;45266;48.756;9.246;2023-07-20T03:21:53;14.30;99.90
55648;DHT22;45266;48.756;9.246;2023-07-20T03:22:55;14.30;99.90
55648;DHT22;45266;48.756;9.246;2023-07-20T03:24:01;14.30;99.90
55648;DHT22;45266;48.756;9.246;2023-07-20T03:25:08;14.30;99.90
55648;DHT22;45266;48.756;9.246;2023-07-20T03:26:15;14.30;99.90
55648;DHT22;45266;48.756;9.246;2023-07-20T03:27:20;14.30;99.90
55648;DHT22;45266;48.756;9.246;2023-07-20T03:28:27;14.30;99.90
55648;DHT22;45266;48.756;9.246;2023-07-20T03:29:32;14.30;99.90
55648;DHT22;45266;48.756;9.246;2023-07-20T03:30:35;14.30;99.90
55648;DHT22;45266;48.756;9.246;2023-07-20T03:31:40;14.40;99.90
55648;DHT22;45266;48.756;9.246;2023-07-20T03:32:47;14.40;99.90
55648;DHT22;45266;48.756;9.246;2023-07-20T03:33:53;14.30;99.90
55648;DHT22;45266;48.756;9.246;2023-07-20T03:34:57;14.30;99.90
55648;DHT22;45266;48.756;9.246;2023-07-20T03:35:59;14.30;99.90
55648;DHT22;45266;48.756;9.246;2023-07-20T03:37:01;14.30;99.90
55648;DHT22;45266;48.756;9.246;2023-07-20T03:38:06;14.30;99.90
55648;DHT22;45266;48.756;9.246;2023-07-20T03:39:08;14.30;99.90
55648;DHT22;45266;48.756;9.246;2023-07-20T03:40:13;14.30;99.90
55648;DHT22;45266;48.756;9.246;2023-07-20T03:41:23;14.30;99.90
55648;DHT22;45266;48.756;9.246;2023-07-20T03:42:31;14.30;99.90
55648;DHT22;45266;48.756;9.246;2023-07-20T03:43:39;14.30;99.90
55648;DHT22;45266;48.756;9.246;2023-07-20T03:44:45;14.30;99.90
55648;DHT22;45266;48.756;9.246;2023-07-20T03:45:55;14.30;99.90
55648;DHT22;45266;48.756;9.246;2023-07-20T03:47:01;14.30;99.90
55648;DHT22;45266;48.756;9.246;2023-07-20T03:48:06;14.30;99.90
55648;DHT22;45266;48.756;9.246;2023-07-20T03:49:08;14.30;99.90
55648;DHT22;45266;48.756;9.246;2023-07-20T03:50:11;14.30;99.90
55648;DHT22;45266;48.756;9.246;2023-07-20T03:51:14;14.30;99.90
55648;DHT22;45266;48.756;9.246;2023-07-20T03:52:17;14.30;99.90
55648;DHT22;45266;48.756;9.246;2023-07-20T03:53:24;14.30;99.90
55648;DHT22;45266;48.756;9.246;2023-07-20T03:54:29;14.30;99.90
55648;DHT22;45266;48.756;9.246;2023-07-20T03:55:32;14.30;99.90
55648;DHT22;45266;48.756;9.246;2023-07-20T03:56:34;14.30;99.90
55648;DHT22;45266;48.756;9.246;2023-07-20T03:57:37;14.30;99.90
55648;DHT22;45266;48.756;9.246;2023-07-20T03:58:39;14.30;99.90
55648;DHT22;45266;48.756;9.246;2023-07-20T03:59:45;14.30;99.90
55648;DHT22;45266;48.756;9.246;2023-07-20T04:00:51;14.40;99.90
55648;DHT22;45266;48.756;9.246;2023-07-20T04:01:57;14.40;99.90
55648;DHT22;45266;48.756;9.246;2023-07-20T04:03:03;14.40;99.90
55648;DHT22;45266;48.756;9.246;2023-07-20T04:04:07;14.40;99.90
55648;DHT22;45266;48.756;9.246;2023-07-20T04:05:10;14.50;99.90
55648;DHT22;45266;48.756;9.246;2023-07-20T04:06:12;14.50;99.90
55648;DHT22;45266;48.756;9.246;2023-07-20T04:07:16;14.50;99.90
55648;DHT22;45266;48.756;9.246;2023-07-20T04:08:24;14.60;99.90
55648;DHT22;45266;48.756;9.246;2023-07-20T04:09:34;14.60;99.90
55648;DHT22;45266;48.756;9.246;2023-07-20T04:10:47;14.60;99.90
55648;DHT22;45266;48.756;9.246;2023-07-20T04:11:57;14.60;99.90
55648;DHT22;45266;48.756;9.246;2023-07-20T04:13:01;14.70;99.90
55648;DHT22;45266;48.756;9.246;2023-07-20T04:14:07;14.70;99.90
55648;DHT22;45266;48.756;9.246;2023-07-20T04:15:13;14.70;99.90
55648;DHT22;45266;48.756;9.246;2023-07-20T04:16:19;14.70;99.90
55648;DHT22;45266;48.756;9.246;2023-07-20T04:17:33;14.80;99.90
55648;DHT22;45266;48.756;9.246;2023-07-20T04:18:35;14.70;99.90
55648;DHT22;45266;48.756;9.246;2023-07-20T04:19:38;14.80;99.90
55648;DHT22;45266;48.756;9.246;2023-07-20T04:20:43;14.80;99.90
55648;DHT22;45266;48.756;9.246;2023-07-20T04:21:48;14.80;99.90
55648;DHT22;45266;48.756;9.246;2023-07-20T04:22:54;14.80;99.90
55648;DHT22;45266;48.756;9.246;2023-07-20T04:23:59;14.90;99.90
55648;DHT22;45266;48.756;9.246;2023-07-20T04:25:10;14.90;99.90
55648;DHT22;45266;48.756;9.246;2023-07-20T04:26:12;14.90;99.90
55648;DHT22;45266;48.756;9.246;2023-07-20T04:27:14;14.90;99.90
55648;DHT22;45266;48.756;9.246;2023-07-20T04:28:16;15.00;99.90
55648;DHT22;45266;48.756;9.246;2023-07-20T04:29:18;15.00;99.90
55648;DHT22;45266;48.756;9.246;2023-07-20T04:30:20;15.10;99.90
55648;DHT22;45266;48.756;9.246;2023-07-20T04:31:25;15.10;99.90
55648;DHT22;45266;48.756;9.246;2023-07-20T04:32:32;15.10;99.90
55648;DHT22;45266;48.756;9.246;2023-07-20T04:33:38;15.20;99.90
55648;DHT22;45266;48.756;9.246;2023-07-20T04:34:42;15.20;99.90
55648;DHT22;45266;48.756;9.246;2023-07-20T04:35:52;15.20;99.90
55648;DHT22;45266;48.756;9.246;2023-07-20T04:36:54;15.30;99.90
55648;DHT22;45266;48.756;9.246;2023-07-20T04:37:59;15.30;99.90
55648;DHT22;45266;48.756;9.246;2023-07-20T04:39:07;15.40;99.90
55648;DHT22;45266;48.756;9.246;2023-07-20T04:40:33;15.40;99.90
55648;DHT22;45266;48.756;9.246;2023-07-20T04:41:37;15.40;99.90
55648;DHT22;45266;48.756;9.246;2023-07-20T04:42:42;15.50;99.90
55648;DHT22;45266;48.756;9.246;2023-07-20T04:43:47;15.50;99.90
55648;DHT22;45266;48.756;9.246;2023-07-20T04:44:50;15.50;99.90
55648;DHT22;45266;48.756;9.246;2023-07-20T04:45:53;15.60;99.90
55648;DHT22;45266;48.756;9.246;2023-07-20T04:46:56;15.60;99.90
55648;DHT22;45266;48.756;9.246;2023-07-20T04:48:00;15.70;99.90
55648;DHT22;45266;48.756;9.246;2023-07-20T04:49:03;15.70;99.90
55648;DHT22;45266;48.756;9.246;2023-07-20T04:50:07;15.80;99.90
55648;DHT22;45266;48.756;9.246;2023-07-20T04:51:13;15.80;99.90
55648;DHT22;45266;48.756;9.246;2023-07-20T04:52:19;15.90;99.90
55648;DHT22;45266;48.756;9.246;2023-07-20T04:53:30;16.00;99.90
55648;DHT22;45266;48.756;9.246;2023-07-20T04:54:33;16.00;99.90
55648;DHT22;45266;48.756;9.246;2023-07-20T04:55:35;16.00;99.90
55648;DHT22;45266;48.756;9.246;2023-07-20T04:56:38;16.10;99.90
55648;DHT22;45266;48.756;9.246;2023-07-20T04:57:40;16.20;99.90
55648;DHT22;45266;48.756;9.246;2023-07-20T04:58:42;16.20;99.90
55648;DHT22;45266;48.756;9.246;2023-07-20T04:59:44;16.30;99.90
55648;DHT22;45266;48.756;9.246;2023-07-20T05:00:46;16.30;99.90
55648;DHT22;45266;48.756;9.246;2023-07-20T05:01:48;16.40;99.90
55648;DHT22;45266;48.756;9.246;2023-07-20T05:02:50;16.40;99.90
55648;DHT22;45266;48.756;9.246;2023-07-20T05:03:54;16.50;99.90
55648;DHT22;45266;48.756;9.246;2023-07-20T05:05:01;16.50;99.90
55648;DHT22;45266;48.756;9.246;2023-07-20T05:06:05;16.60;99.90
55648;DHT22;45266;48.756;9.246;2023-07-20T05:07:07;16.70;99.90
55648;DHT22;45266;48.756;9.246;2023-07-20T05:08:10;16.70;99.90
55648;DHT22;45266;48.756;9.246;2023-07-20T05:09:14;16.80;99.90
55648;DHT22;45266;48.756;9.246;2023-07-20T05:10:19;16.80;99.90
55648;DHT22;45266;48.756;9.246;2023-07-20T05:11:23;16.90;99.90
55648;DHT22;45266;48.756;9.246;2023-07-20T05:12:26;16.90;99.90
55648;DHT22;45266;48.756;9.246;2023-07-20T05:13:31;17.00;99.90
55648;DHT22;45266;48.756;9.246;2023-07-20T05:14:36;17.10;99.90
55648;DHT22;45266;48.756;9.246;2023-07-20T05:15:39;17.10;99.90
55648;DHT22;45266;48.756;9.246;2023-07-20T05:16:41;17.20;99.90
55648;DHT22;45266;48.756;9.246;2023-07-20T05:17:47;17.30;99.90
55648;DHT22;45266;48.756;9.246;2023-07-20T05:18:57;17.30;99.90
55648;DHT22;45266;48.756;9.246;2023-07-20T05:20:07;17.40;99.90
55648;DHT22;45266;48.756;9.246;2023-07-20T05:21:11;17.50;99.90
55648;DHT22;45266;48.756;9.246;2023-07-20T05:22:14;17.50;99.90
55648;DHT22;45266;48.756;9.246;2023-07-20T05:23:20;17.60;99.90
55648;DHT22;45266;48.756;9.246;2023-07-20T05:24:24;17.60;99.90
55648;DHT22;45266;48.756;9.246;2023-07-20T05:25:26;17.70;99.90
55648;DHT22;45266;48.756;9.246;2023-07-20T05:26:31;17.70;99.90
55648;DHT22;45266;48.756;9.246;2023-07-20T05:27:37;17.70;99.90
55648;DHT22;45266;48.756;9.246;2023-07-20T05:28:39;17.80;99.90
55648;DHT22;45266;48.756;9.246;2023-07-20T05:29:46;17.80;99.90
55648;DHT22;45266;48.756;9.246;2023-07-20T05:30:53;17.90;99.90
55648;DHT22;45266;48.756;9.246;2023-07-20T05:31:58;17.90;99.90
55648;DHT22;45266;48.756;9.246;2023-07-20T05:33:01;17.90;99.90
55648;DHT22;45266;48.756;9.246;2023-07-20T05:34:05;18.00;99.90
55648;DHT22;45266;48.756;9.246;2023-07-20T05:35:10;18.00;99.90
55648;DHT22;45266;48.756;9.246;2023-07-20T05:36:15;18.00;99.90
55648;DHT22;45266;48.756;9.246;2023-07-20T05:37:17;18.00;99.90
55648;DHT22;45266;48.756;9.246;2023-07-20T05:38:20;18.10;99.90
55648;DHT22;45266;48.756;9.246;2023-07-20T05:39:25;18.10;99.90
55648;DHT22;45266;48.756;9.246;2023-07-20T05:40:30;18.20;99.90
55648;DHT22;45266;48.756;9.246;2023-07-20T05:41:36;18.20;99.90
55648;DHT22;45266;48.756;9.246;2023-07-20T05:42:40;18.30;99.90
55648;DHT22;45266;48.756;9.246;2023-07-20T05:43:43;18.30;99.90
55648;DHT22;45266;48.756;9.246;2023-07-20T05:44:47;18.30;99.90
55648;DHT22;45266;48.756;9.246;2023-07-20T05:45:51;18.30;99.90
55648;DHT22;45266;48.756;9.246;2023-07-20T05:46:53;18.30;99.90
55648;DHT22;45266;48.756;9.246;2023-07-20T05:48:00;18.40;99.90
55648;DHT22;45266;48.756;9.246;2023-07-20T05:49:05;18.40;99.90
55648;DHT22;45266;48.756;9.246;2023-07-20T05:50:11;18.50;99.90
55648;DHT22;45266;48.756;9.246;2023-07-20T05:51:23;18.50;99.90
55648;DHT22;45266;48.756;9.246;2023-07-20T05:52:25;18.70;99.90
55648;DHT22;45266;48.756;9.246;2023-07-20T05:53:27;18.70;99.90
55648;DHT22;45266;48.756;9.246;2023-07-20T05:54:29;18.70;99.90
55648;DHT22;45266;48.756;9.246;2023-07-20T05:55:32;18.80;98.50
55648;DHT22;45266;48.756;9.246;2023-07-20T05:56:34;18.80;99.90
55648;DHT22;45266;48.756;9.246;2023-07-20T05:57:36;18.80;99.90
55648;DHT22;45266;48.756;9.246;2023-07-20T05:58:41;18.90;99.90
55648;DHT22;45266;48.756;9.246;2023-07-20T05:59:43;18.90;97.30
55648;DHT22;45266;48.756;9.246;2023-07-20T06:00:49;19.00;99.90
55648;DHT22;45266;48.756;9.246;2023-07-20T06:01:52;19.00;95.30
55648;DHT22;45266;48.756;9.246;2023-07-20T06:02:54;19.10;94.30
55648;DHT22;45266;48.756;9.246;2023-07-20T06:03:57;19.10;92.90
55648;DHT22;45266;48.756;9.246;2023-07-20T06:04:59;19.10;93.80
55648;DHT22;45266;48.756;9.246;2023-07-20T06:06:02;19.20;92.80
55648;DHT22;45266;48.756;9.246;2023-07-20T06:07:06;19.20;93.50
55648;DHT22;45266;48.756;9.246;2023-07-20T06:08:10;19.30;94.90
55648;DHT22;45266;48.756;9.246;2023-07-20T06:09:15;19.40;94.40
55648;DHT22;45266;48.756;9.246;2023-07-20T06:10:17;19.50;92.40
55648;DHT22;45266;48.756;9.246;2023-07-20T06:11:22;19.60;92.80
55648;DHT22;45266;48.756;9.246;2023-07-20T06:12:27;19.60;92.00
55648;DHT22;45266;48.756;9.246;2023-07-20T06:13:29;19.70;93.20
55648;DHT22;45266;48.756;9.246;2023-07-20T06:14:31;19.80;88.20
55648;DHT22;45266;48.756;9.246;2023-07-20T06:15:34;19.80;90.40
55648;DHT22;45266;48.756;9.246;2023-07-20T06:16:40;19.80;89.60
55648;DHT22;45266;48.756;9.246;2023-07-20T06:17:42;19.90;89.60
55648;DHT22;45266;48.756;9.246;2023-07-20T06:18:45;19.90;92.20
55648;DHT22;45266;48.756;9.246;2023-07-20T06:19:47;19.90;90.20
55648;DHT22;45266;48.756;9.246;2023-07-20T06:20:50;19.90;87.70
55648;DHT22;45266;48.756;9.246;2023-07-20T06:21:53;19.90;85.80
55648;DHT22;45266;48.756;9.246;2023-07-20T06:22:58;19.90;86.70
55648;DHT22;45266;48.756;9.246;2023-07-20T06:24:01;20.00;88.10
55648;DHT22;45266;48.756;9.246;2023-07-20T06:25:03;20.00;84.40
55648;DHT22;45266;48.756;9.246;2023-07-20T06:26:07;20.00;84.50
55648;DHT22;45266;48.756;9.246;2023-07-20T06:27:11;20.00;86.60
55648;DHT22;45266;48.756;9.246;2023-07-20T06:28:14;20.00;85.90
55648;DHT22;45266;48.756;9.246;2023-07-20T06:29:16;20.00;88.10
55648;DHT22;45266;48.756;9.246;2023-07-20T06:30:22;20.00;86.20
55648;DHT22;45266;48.756;9.246;2023-07-20T06:31:27;20.00;84.50
55648;DHT22;45266;48.756;9.246;2023-07-20T06:32:30;20.00;86.50
55648;DHT22;45266;48.756;9.246;2023-07-20T06:33:32;20.10;89.80
55648;DHT22;45266;48.756;9.246;2023-07-20T06:34:34;20.10;89.40
55648;DHT22;45266;48.756;9.246;2023-07-20T06:35:44;20.10;92.20
55648;DHT22;45266;48.756;9.246;2023-07-20T06:36:49;20.10;87.90
55648;DHT22;45266;48.756;9.246;2023-07-20T06:37:53;20.20;90.60
55648;DHT22;45266;48.756;9.246;2023-07-20T06:38:56;20.20;83.50
55648;DHT22;45266;48.756;9.246;2023-07-20T06:40:02;20.20;84.50
55648;DHT22;45266;48.756;9.246;2023-07-20T06:41:08;20.20;85.20
55648;DHT22;45266;48.756;9.246;2023-07-20T06:42:13;20.30;87.50
55648;DHT22;45266;48.756;9.246;2023-07-20T06:43:15;20.30;84.80
55648;DHT22;45266;48.756;9.246;2023-07-20T06:44:20;20.30;86.00
55648;DHT22;45266;48.756;9.246;2023-07-20T06:45:22;20.40;81.40
55648;DHT22;45266;48.756;9.246;2023-07-20T06:46:28;20.40;81.50
55648;DHT22;45266;48.756;9.246;2023-07-20T06:47:32;20.50;83.80
55648;DHT22;45266;48.756;9.246;2023-07-20T06:48:36;20.50;82.20
55648;DHT22;45266;48.756;9.246;2023-07-20T06:49:59;20.50;82.30
55648;DHT22;45266;48.756;9.246;2023-07-20T06:51:04;20.50;85.00
55648;DHT22;45266;48.756;9.246;2023-07-20T06:52:09;20.50;85.30
55648;DHT22;45266;48.756;9.246;2023-07-20T06:53:12;20.50;82.20
55648;DHT22;45266;48.756;9.246;2023-07-20T06:54:14;20.50;81.70
55648;DHT22;45266;48.756;9.246;2023-07-20T06:55:16;20.60;85.00
55648;DHT22;45266;48.756;9.246;2023-07-20T06:56:24;20.60;84.60